METAR Data
IDs: Format: Raw Decoded Include TAF

Data at: 0425 UTC 26 Sep 2018

KAVX 260351Z AUTO 23008KT 3/4SM BR VV001 14/14 A2996 RMK AO2 SLP134 T01440144
KAVX 260323Z AUTO 23006KT 3/4SM BR VV001 15/15 A2995 RMK AO2 T01500150
KAVX 260259Z AUTO 24007KT 1 3/4SM BR OVC002 14/14 A2995 RMK AO2 VIS 1V4 T01440144
KAVX 260251Z AUTO 24007KT 3SM BR OVC002 14/14 A2995 RMK AO2 SLP132 T01440144 53005
KAVX 260211Z AUTO 24008KT 6SM BR BKN002 15/14 A2993 RMK AO2 T01500144
KAVX 260201Z AUTO 23009KT 6SM BR SCT002 15/14 A2993 RMK AO2 T01500144
KAVX 260151Z AUTO 24007KT 7SM CLR 15/14 A2994 RMK AO2 SLP128 T01500144
KAVX 260051Z AUTO 24004KT 10SM CLR 17/14 A2993 RMK AO2 SLP124 T01670139
KAVX 252351Z AUTO 24008KT 10SM CLR 16/14 A2993 RMK AO2 SLP126 T01610139 10189 20161 56012
KAVX 252251Z AUTO 24010KT 10SM CLR 17/14 A2993 RMK AO2 SLP126 T01670139
KAVX 252151Z AUTO 26007KT 10SM CLR 18/14 A2995 RMK AO2 SLP129 T01780144
KAVX 252051Z AUTO VRB04KT 10SM CLR 18/14 A2997 RMK AO2 SLP135 T01830144 58008
KAVX 251951Z AUTO 28005KT 10SM CLR 18/14 A2998 RMK AO2 SLP140 T01830144
KAVX 251851Z AUTO VRB05KT 10SM CLR 18/14 A2999 RMK AO2 SLP143 T01830139
KAVX 251751Z AUTO VRB03KT 10SM CLR 18/14 A2999 RMK AO2 SLP142 T01830144 10189 20122 53011
KAVX 251709Z AUTO 00000KT 10SM FEW007 18/14 A2998 RMK AO2 T01780139
KAVX 251651Z AUTO 00000KT 10SM BKN006 16/14 A2998 RMK AO2 SLP141 T01610139
KAVX 251637Z AUTO 00000KT 9SM OVC005 16/14 A2998 RMK AO2 T01560139
KAVX 251551Z AUTO VRB04KT 6SM BR OVC003 14/14 A2997 RMK AO2 SLP138 T01440139
KAVX 251521Z AUTO 31003KT 4SM BR OVC002 13/13 A2997 RMK AO2 T01330133
KAVX 251510Z AUTO 27004KT 2SM BR OVC002 13/13 A2996 RMK AO2 VIS 1 1/4V5 T01330133
KAVX 251504Z AUTO 30004KT 1SM BR OVC002 13/13 A2996 RMK AO2 T01330133
KAVX 251451Z AUTO 28005KT 1 1/4SM BR OVC002 13/13 A2996 RMK AO2 VIS 1/2V2 1/2 SLP138 T01330133 51014
KAVX 251439Z AUTO 27004KT 2SM BR OVC002 13/13 A2995 RMK AO2 VIS 1V4 T01330133
KAVX 251432Z AUTO 26003KT 3/4SM BR OVC002 13/13 A2995 RMK AO2 VIS 1/4V4 T01330133
KAVX 251406Z AUTO 26005KT 1SM BR OVC002 13/13 A2994 RMK AO2 VIS 1/4V5 T01330133
KAVX 251401Z AUTO 26006KT 4SM BR OVC002 13/13 A2994 RMK AO2 T01330133
KAVX 251351Z AUTO 26005KT 2 1/2SM BR OVC002 13/13 A2994 RMK AO2 VIS 1 1/2V5 SLP129 T01330133
KAVX 251325Z AUTO 24007KT 2 1/2SM BR OVC002 13/13 A2993 RMK AO2 T01330133 $
KAVX 251257Z AUTO 00000KT 1 1/4SM BR OVC002 13/13 A2992 RMK AO2 VIS 3/4V2 1/2 T01280128 $
KAVX 251251Z AUTO 22005KT 3/4SM BR VV002 13/13 A2992 RMK AO2 SLP122 T01280128 $
KAVX 251151Z AUTO 00000KT 1/4SM FG VV002 13/13 A2990 RMK AO2 SLP116 T01280128 10144 20128 58003 $
KAVX 251134Z AUTO 00000KT 3/4SM BR OVC002 13/13 A2991 RMK AO2 T01330133 $
KAVX 251132Z AUTO VRB03KT 1 1/2SM BR OVC002 13/13 A2991 RMK AO2 VIS 1/2V4 T01330133 $
KAVX 251058Z AUTO 31003KT 3SM BR OVC002 13/13 A2991 RMK AO2 T01330133 $
KAVX 251051Z AUTO 00000KT 1 3/4SM BR OVC002 13/13 A2991 RMK AO2 VIS 1V3 SLP117 T01330133 $
KAVX 251034Z AUTO 00000KT 1 1/4SM BR OVC002 13/13 A2991 RMK AO2 VIS 1V2 T01330133 $
KAVX 251026Z AUTO 35003KT 2SM BR OVC002 13/13 A2991 RMK AO2 T01330133 $
KAVX 251016Z AUTO 35003KT 1 3/4SM BR OVC002 13/13 A2991 RMK AO2 VIS 1 1/4V4 T01330133 $
KAVX 250951Z AUTO 33003KT 6SM BR OVC002 14/14 A2992 RMK AO2 SLP117 T01390139 $
KAVX 250851Z AUTO 06004KT 3SM BR OVC002 14/14 A2991 RMK AO2 SLP114 T01390139 58002 $
KAVX 250804Z AUTO 08003KT 3SM BR OVC002 14/14 A2992 RMK AO2 T01390139 $
KAVX 250751Z AUTO 06003KT 1 1/2SM BR OVC002 14/14 A2992 RMK AO2 SLP118 T01390139 402000133 $
KAVX 250737Z AUTO VRB05KT 1SM BR VV002 14/14 A2992 RMK AO2 T01390139 $
KAVX 250651Z AUTO 07004KT 1/2SM FG VV002 14/14 A2992 RMK AO2 VIS 1/4V1 1/2 SLP117 T01390139 $
KAVX 250551Z AUTO 09005KT 3/4SM BR VV002 14/14 A2992 RMK AO2 SLP117 T01440144 10167 20133 50002 $
KAVX 250454Z AUTO 07005KT 3/4SM BR VV002 14/14 A2992 RMK AO2 T01440144 $
KAVX 250451Z AUTO 08004KT 1 1/4SM BR OVC002 14/14 A2992 RMK AO2 VIS 3/4V3 SLP118 T01440144 $
KAVX 250446Z AUTO 10004KT 1 3/4SM BR OVC002 14/14 A2992 RMK AO2 VIS 3/4V3 $
KAVX 250432Z AUTO 11006KT 2SM BR OVC002 14/14 A2991 RMK AO2 VIS 1V3 T01440144 $
KAVX 250351Z AUTO 11006KT 6SM BR OVC002 14/14 A2991 RMK AO2 SLP117 T01440144 $
KAVX 250317Z AUTO 13004KT 6SM BR BKN002 14/14 A2991 RMK AO2 T01390139 $
KAVX 250253Z AUTO 00000KT 3SM BR SCT001 13/13 A2990 RMK AO2 T01330133 $
KAVX 250251Z AUTO 19003KT 1 1/2SM BR SCT001 13/13 A2990 RMK AO2 SLP115 T01330133 51005 $
KAVX 250248Z AUTO 18004KT 3/4SM BR VV001 13/13 A2990 RMK AO2 $
KAVX 250241Z AUTO 20005KT 1SM BR VV001 13/13 A2990 RMK AO2 T01330133 $
KAVX 250239Z AUTO 19004KT 2SM BR FEW002 13/13 A2990 RMK AO2 T01330133 $
KAVX 250151Z AUTO 23006KT 7SM CLR 14/13 A2989 RMK AO2 SLP111 T01440133 $
KAVX 250104Z AUTO 24007KT 7SM FEW002 14/14 A2989 RMK AO2 T01440139 $
KAVX 250051Z AUTO 24008KT 8SM CLR 15/14 A2988 RMK AO2 SLP109 T01500139 $
KAVX 250022Z AUTO 24009KT 8SM FEW003 16/14 A2988 RMK AO2 T01560139 $
KAVX 242351Z AUTO 24010KT 9SM CLR 17/14 A2988 RMK AO2 SLP107 T01670139 10200 20161 56012 $
KAVX 242251Z AUTO 25009KT 10SM CLR 18/14 A2989 RMK AO2 SLP107 T01780144 $
KAVX 242151Z AUTO 27006KT 10SM CLR 18/14 A2990 RMK AO2 SLP110 T01830144 $
KAVX 242051Z AUTO 27005KT 10SM CLR 20/14 A2992 RMK AO2 SLP116 T02000144 58008 $
KAVX 241951Z AUTO 27005KT 10SM CLR 19/14 A2994 RMK AO2 SLP123 T01940144 $
KAVX 241851Z AUTO VRB03KT 10SM CLR 19/16 A2994 RMK AO2 SLP124 T01940156 $
KAVX 241802Z AUTO 03004KT 10SM SCT008 19/15 A2995 RMK AO2 T01890150 $
KAVX 241751Z AUTO 03003KT 10SM BKN008 18/15 A2994 RMK AO2 CIG 005V010 SLP125 T01830150 10189 20144 51010 $
KAVX 241725Z AUTO 06006KT 10SM BKN009 18/15 A2994 RMK AO2 T01830150 $
KAVX 241659Z AUTO VRB04KT 10SM SCT008 18/15 A2994 RMK AO2 T01780150 $
KAVX 241651Z AUTO VRB04KT 10SM BKN007 18/15 A2994 RMK AO2 SLP119 T01780150 $